sensor_id;sensor_type;location;lat;lon;timestamp;P1;durP1;ratioP1;P2;durP2;ratioP2
8556;SDS011;4316;53.840;10.762;2023-12-04T00:00:37;17.40;;;10.60;;
8556;SDS011;4316;53.840;10.762;2023-12-04T00:03:03;15.77;;;9.83;;
8556;SDS011;4316;53.840;10.762;2023-12-04T00:05:28;13.73;;;9.67;;
8556;SDS011;4316;53.840;10.762;2023-12-04T00:07:54;16.87;;;9.77;;
8556;SDS011;4316;53.840;10.762;2023-12-04T00:10:20;14.07;;;9.97;;
8556;SDS011;4316;53.840;10.762;2023-12-04T00:12:46;16.07;;;9.87;;
8556;SDS011;4316;53.840;10.762;2023-12-04T00:15:12;13.53;;;9.97;;
8556;SDS011;4316;53.840;10.762;2023-12-04T00:17:40;16.30;;;9.70;;
8556;SDS011;4316;53.840;10.762;2023-12-04T00:20:06;14.57;;;9.83;;
8556;SDS011;4316;53.840;10.762;2023-12-04T00:22:33;14.33;;;10.00;;
8556;SDS011;4316;53.840;10.762;2023-12-04T00:24:59;14.83;;;10.00;;
8556;SDS011;4316;53.840;10.762;2023-12-04T00:27:25;15.30;;;10.00;;
8556;SDS011;4316;53.840;10.762;2023-12-04T00:29:52;13.30;;;9.37;;
8556;SDS011;4316;53.840;10.762;2023-12-04T00:32:18;13.30;;;9.50;;
8556;SDS011;4316;53.840;10.762;2023-12-04T00:34:44;18.07;;;9.93;;
8556;SDS011;4316;53.840;10.762;2023-12-04T00:37:10;13.07;;;9.97;;
8556;SDS011;4316;53.840;10.762;2023-12-04T00:39:35;11.87;;;8.90;;
8556;SDS011;4316;53.840;10.762;2023-12-04T00:42:01;13.17;;;9.50;;
8556;SDS011;4316;53.840;10.762;2023-12-04T00:44:27;18.50;;;10.97;;
8556;SDS011;4316;53.840;10.762;2023-12-04T00:46:52;16.63;;;10.37;;
8556;SDS011;4316;53.840;10.762;2023-12-04T00:49:18;14.10;;;9.80;;
8556;SDS011;4316;53.840;10.762;2023-12-04T00:51:44;13.70;;;10.10;;
8556;SDS011;4316;53.840;10.762;2023-12-04T00:54:10;19.70;;;11.47;;
8556;SDS011;4316;53.840;10.762;2023-12-04T00:56:39;14.60;;;10.77;;
8556;SDS011;4316;53.840;10.762;2023-12-04T00:59:09;17.00;;;10.93;;
8556;SDS011;4316;53.840;10.762;2023-12-04T01:01:35;17.63;;;10.33;;
8556;SDS011;4316;53.840;10.762;2023-12-04T01:04:01;17.73;;;11.20;;
8556;SDS011;4316;53.840;10.762;2023-12-04T01:06:27;15.07;;;10.03;;
8556;SDS011;4316;53.840;10.762;2023-12-04T01:08:54;16.97;;;10.60;;
8556;SDS011;4316;53.840;10.762;2023-12-04T01:11:20;17.30;;;10.67;;
8556;SDS011;4316;53.840;10.762;2023-12-04T01:13:46;14.67;;;10.27;;
8556;SDS011;4316;53.840;10.762;2023-12-04T01:16:13;13.50;;;9.27;;
8556;SDS011;4316;53.840;10.762;2023-12-04T01:18:40;20.00;;;10.50;;
8556;SDS011;4316;53.840;10.762;2023-12-04T01:21:06;17.23;;;11.00;;
8556;SDS011;4316;53.840;10.762;2023-12-04T01:23:34;16.87;;;10.03;;
8556;SDS011;4316;53.840;10.762;2023-12-04T01:26:00;15.67;;;11.03;;
8556;SDS011;4316;53.840;10.762;2023-12-04T01:28:27;15.20;;;10.20;;
8556;SDS011;4316;53.840;10.762;2023-12-04T01:30:52;15.17;;;10.37;;
8556;SDS011;4316;53.840;10.762;2023-12-04T01:33:18;18.13;;;10.80;;
8556;SDS011;4316;53.840;10.762;2023-12-04T01:35:44;11.90;;;10.07;;
8556;SDS011;4316;53.840;10.762;2023-12-04T01:38:09;12.43;;;10.10;;
8556;SDS011;4316;53.840;10.762;2023-12-04T01:40:35;14.73;;;9.93;;
8556;SDS011;4316;53.840;10.762;2023-12-04T01:43:01;15.77;;;10.10;;
8556;SDS011;4316;53.840;10.762;2023-12-04T01:45:27;16.33;;;10.20;;
8556;SDS011;4316;53.840;10.762;2023-12-04T01:47:53;13.30;;;10.47;;
8556;SDS011;4316;53.840;10.762;2023-12-04T01:50:19;15.67;;;10.83;;
8556;SDS011;4316;53.840;10.762;2023-12-04T01:52:45;17.10;;;10.80;;
8556;SDS011;4316;53.840;10.762;2023-12-04T01:55:12;21.00;;;11.70;;
8556;SDS011;4316;53.840;10.762;2023-12-04T01:57:38;15.83;;;10.50;;
8556;SDS011;4316;53.840;10.762;2023-12-04T02:00:05;13.87;;;9.90;;
8556;SDS011;4316;53.840;10.762;2023-12-04T02:02:37;16.03;;;11.20;;
8556;SDS011;4316;53.840;10.762;2023-12-04T02:05:04;16.80;;;11.90;;
8556;SDS011;4316;53.840;10.762;2023-12-04T02:07:32;13.67;;;10.37;;
8556;SDS011;4316;53.840;10.762;2023-12-04T02:09:58;21.50;;;12.43;;
8556;SDS011;4316;53.840;10.762;2023-12-04T02:12:24;22.17;;;11.83;;
8556;SDS011;4316;53.840;10.762;2023-12-04T02:14:50;23.60;;;12.93;;
8556;SDS011;4316;53.840;10.762;2023-12-04T02:17:17;16.77;;;11.70;;
8556;SDS011;4316;53.840;10.762;2023-12-04T02:19:43;16.47;;;11.47;;
8556;SDS011;4316;53.840;10.762;2023-12-04T02:22:09;19.67;;;11.87;;
8556;SDS011;4316;53.840;10.762;2023-12-04T02:24:35;18.80;;;11.77;;
8556;SDS011;4316;53.840;10.762;2023-12-04T02:27:05;17.53;;;11.27;;
8556;SDS011;4316;53.840;10.762;2023-12-04T02:29:49;18.87;;;11.67;;
8556;SDS011;4316;53.840;10.762;2023-12-04T02:32:23;17.47;;;11.70;;
8556;SDS011;4316;53.840;10.762;2023-12-04T02:34:51;15.77;;;10.73;;
8556;SDS011;4316;53.840;10.762;2023-12-04T02:37:19;18.97;;;12.20;;
8556;SDS011;4316;53.840;10.762;2023-12-04T02:39:46;15.60;;;10.87;;
8556;SDS011;4316;53.840;10.762;2023-12-04T02:42:13;16.03;;;11.07;;
8556;SDS011;4316;53.840;10.762;2023-12-04T02:44:39;16.73;;;11.40;;
8556;SDS011;4316;53.840;10.762;2023-12-04T02:47:05;15.80;;;10.60;;
8556;SDS011;4316;53.840;10.762;2023-12-04T02:49:31;16.60;;;11.40;;
8556;SDS011;4316;53.840;10.762;2023-12-04T02:51:57;15.00;;;9.97;;
8556;SDS011;4316;53.840;10.762;2023-12-04T02:54:22;22.43;;;12.50;;
8556;SDS011;4316;53.840;10.762;2023-12-04T02:56:48;19.20;;;12.10;;
8556;SDS011;4316;53.840;10.762;2023-12-04T02:59:15;18.03;;;12.13;;
8556;SDS011;4316;53.840;10.762;2023-12-04T03:01:40;15.93;;;11.47;;
8556;SDS011;4316;53.840;10.762;2023-12-04T03:04:06;18.13;;;12.50;;
8556;SDS011;4316;53.840;10.762;2023-12-04T03:06:32;20.87;;;13.20;;
8556;SDS011;4316;53.840;10.762;2023-12-04T03:08:58;22.33;;;12.37;;
8556;SDS011;4316;53.840;10.762;2023-12-04T03:11:25;17.97;;;11.83;;
8556;SDS011;4316;53.840;10.762;2023-12-04T03:13:50;24.40;;;13.50;;
8556;SDS011;4316;53.840;10.762;2023-12-04T03:16:17;17.30;;;11.67;;
8556;SDS011;4316;53.840;10.762;2023-12-04T03:18:44;20.37;;;12.73;;
8556;SDS011;4316;53.840;10.762;2023-12-04T03:21:09;19.43;;;11.57;;
8556;SDS011;4316;53.840;10.762;2023-12-04T03:23:36;19.70;;;13.83;;
8556;SDS011;4316;53.840;10.762;2023-12-04T03:26:02;20.87;;;13.07;;
8556;SDS011;4316;53.840;10.762;2023-12-04T03:28:28;19.17;;;13.13;;
8556;SDS011;4316;53.840;10.762;2023-12-04T03:30:54;20.30;;;11.80;;
8556;SDS011;4316;53.840;10.762;2023-12-04T03:33:20;19.23;;;12.60;;
8556;SDS011;4316;53.840;10.762;2023-12-04T03:35:46;25.10;;;13.70;;
8556;SDS011;4316;53.840;10.762;2023-12-04T03:38:12;21.87;;;14.53;;
8556;SDS011;4316;53.840;10.762;2023-12-04T03:40:38;26.13;;;15.07;;
8556;SDS011;4316;53.840;10.762;2023-12-04T03:43:03;21.17;;;13.57;;
8556;SDS011;4316;53.840;10.762;2023-12-04T03:45:29;22.80;;;13.10;;
8556;SDS011;4316;53.840;10.762;2023-12-04T03:47:55;22.63;;;13.63;;
8556;SDS011;4316;53.840;10.762;2023-12-04T03:50:21;20.23;;;12.97;;
8556;SDS011;4316;53.840;10.762;2023-12-04T03:52:46;24.23;;;13.80;;
8556;SDS011;4316;53.840;10.762;2023-12-04T03:55:12;27.30;;;14.97;;
8556;SDS011;4316;53.840;10.762;2023-12-04T03:57:38;23.47;;;13.63;;
8556;SDS011;4316;53.840;10.762;2023-12-04T04:00:04;19.60;;;11.73;;
8556;SDS011;4316;53.840;10.762;2023-12-04T04:02:37;18.30;;;12.17;;
8556;SDS011;4316;53.840;10.762;2023-12-04T04:05:04;17.43;;;11.67;;
8556;SDS011;4316;53.840;10.762;2023-12-04T04:07:30;18.57;;;11.73;;
8556;SDS011;4316;53.840;10.762;2023-12-04T04:09:56;18.73;;;12.13;;
8556;SDS011;4316;53.840;10.762;2023-12-04T04:12:22;17.63;;;12.63;;
8556;SDS011;4316;53.840;10.762;2023-12-04T04:14:48;21.60;;;12.60;;
8556;SDS011;4316;53.840;10.762;2023-12-04T04:17:14;20.07;;;11.10;;
8556;SDS011;4316;53.840;10.762;2023-12-04T04:19:40;22.83;;;13.20;;
8556;SDS011;4316;53.840;10.762;2023-12-04T04:22:06;16.67;;;11.90;;
8556;SDS011;4316;53.840;10.762;2023-12-04T04:24:32;18.17;;;13.27;;
8556;SDS011;4316;53.840;10.762;2023-12-04T04:26:58;24.63;;;13.10;;
8556;SDS011;4316;53.840;10.762;2023-12-04T04:29:23;23.70;;;12.10;;
8556;SDS011;4316;53.840;10.762;2023-12-04T04:31:49;18.77;;;12.23;;
8556;SDS011;4316;53.840;10.762;2023-12-04T04:34:15;17.30;;;11.90;;
8556;SDS011;4316;53.840;10.762;2023-12-04T04:36:42;22.37;;;12.87;;
8556;SDS011;4316;53.840;10.762;2023-12-04T04:39:08;20.33;;;13.00;;
8556;SDS011;4316;53.840;10.762;2023-12-04T04:41:35;21.40;;;14.10;;
8556;SDS011;4316;53.840;10.762;2023-12-04T04:44:01;22.87;;;12.10;;
8556;SDS011;4316;53.840;10.762;2023-12-04T04:46:27;23.53;;;13.53;;
8556;SDS011;4316;53.840;10.762;2023-12-04T04:48:53;24.00;;;13.57;;
8556;SDS011;4316;53.840;10.762;2023-12-04T04:51:19;22.43;;;14.40;;
8556;SDS011;4316;53.840;10.762;2023-12-04T04:53:45;28.47;;;16.87;;
8556;SDS011;4316;53.840;10.762;2023-12-04T04:56:10;25.83;;;14.17;;
8556;SDS011;4316;53.840;10.762;2023-12-04T04:58:36;24.43;;;14.63;;
8556;SDS011;4316;53.840;10.762;2023-12-04T05:01:02;20.20;;;13.67;;
8556;SDS011;4316;53.840;10.762;2023-12-04T05:03:29;24.53;;;14.10;;
8556;SDS011;4316;53.840;10.762;2023-12-04T05:05:54;25.13;;;14.97;;
8556;SDS011;4316;53.840;10.762;2023-12-04T05:08:20;21.53;;;14.30;;
8556;SDS011;4316;53.840;10.762;2023-12-04T05:10:46;22.23;;;13.90;;
8556;SDS011;4316;53.840;10.762;2023-12-04T05:13:12;20.77;;;13.80;;
8556;SDS011;4316;53.840;10.762;2023-12-04T05:15:37;23.97;;;14.83;;
8556;SDS011;4316;53.840;10.762;2023-12-04T05:18:03;26.83;;;15.67;;
8556;SDS011;4316;53.840;10.762;2023-12-04T05:20:29;21.33;;;14.23;;
8556;SDS011;4316;53.840;10.762;2023-12-04T05:22:56;27.33;;;14.07;;
8556;SDS011;4316;53.840;10.762;2023-12-04T05:25:22;23.90;;;14.23;;
8556;SDS011;4316;53.840;10.762;2023-12-04T05:27:48;25.80;;;14.40;;
8556;SDS011;4316;53.840;10.762;2023-12-04T05:30:14;23.40;;;14.73;;
8556;SDS011;4316;53.840;10.762;2023-12-04T05:32:39;23.00;;;13.63;;
8556;SDS011;4316;53.840;10.762;2023-12-04T05:35:05;21.70;;;14.30;;
8556;SDS011;4316;53.840;10.762;2023-12-04T05:37:31;28.10;;;16.27;;
8556;SDS011;4316;53.840;10.762;2023-12-04T05:39:57;27.17;;;13.30;;
8556;SDS011;4316;53.840;10.762;2023-12-04T05:42:23;22.17;;;14.87;;
8556;SDS011;4316;53.840;10.762;2023-12-04T05:44:48;21.33;;;12.83;;
8556;SDS011;4316;53.840;10.762;2023-12-04T05:47:14;20.07;;;13.30;;
8556;SDS011;4316;53.840;10.762;2023-12-04T05:49:40;25.20;;;14.97;;
8556;SDS011;4316;53.840;10.762;2023-12-04T05:52:06;26.67;;;16.40;;
8556;SDS011;4316;53.840;10.762;2023-12-04T05:54:32;27.60;;;15.23;;
8556;SDS011;4316;53.840;10.762;2023-12-04T05:56:58;24.00;;;15.20;;
8556;SDS011;4316;53.840;10.762;2023-12-04T05:59:23;23.97;;;15.43;;
8556;SDS011;4316;53.840;10.762;2023-12-04T06:01:49;23.97;;;15.43;;
8556;SDS011;4316;53.840;10.762;2023-12-04T06:04:15;25.70;;;15.57;;
8556;SDS011;4316;53.840;10.762;2023-12-04T06:06:41;21.53;;;14.40;;
8556;SDS011;4316;53.840;10.762;2023-12-04T06:09:06;29.27;;;16.57;;
8556;SDS011;4316;53.840;10.762;2023-12-04T06:11:32;21.63;;;12.60;;
8556;SDS011;4316;53.840;10.762;2023-12-04T06:13:58;23.30;;;15.43;;
8556;SDS011;4316;53.840;10.762;2023-12-04T06:16:24;25.87;;;15.27;;
8556;SDS011;4316;53.840;10.762;2023-12-04T06:18:49;23.43;;;14.97;;
8556;SDS011;4316;53.840;10.762;2023-12-04T06:21:15;25.47;;;15.10;;
8556;SDS011;4316;53.840;10.762;2023-12-04T06:23:41;27.20;;;15.97;;
8556;SDS011;4316;53.840;10.762;2023-12-04T06:26:07;26.33;;;14.37;;
8556;SDS011;4316;53.840;10.762;2023-12-04T06:28:34;28.43;;;15.73;;
8556;SDS011;4316;53.840;10.762;2023-12-04T06:31:00;24.80;;;15.10;;
8556;SDS011;4316;53.840;10.762;2023-12-04T06:33:26;28.10;;;15.90;;
8556;SDS011;4316;53.840;10.762;2023-12-04T06:35:52;23.53;;;14.27;;
8556;SDS011;4316;53.840;10.762;2023-12-04T06:38:18;20.60;;;14.60;;
8556;SDS011;4316;53.840;10.762;2023-12-04T06:40:47;29.87;;;16.70;;
8556;SDS011;4316;53.840;10.762;2023-12-04T06:43:13;31.40;;;16.17;;
8556;SDS011;4316;53.840;10.762;2023-12-04T06:45:41;34.70;;;21.50;;
8556;SDS011;4316;53.840;10.762;2023-12-04T06:48:07;26.60;;;15.23;;
8556;SDS011;4316;53.840;10.762;2023-12-04T06:50:35;33.87;;;16.27;;
8556;SDS011;4316;53.840;10.762;2023-12-04T06:53:02;26.90;;;16.10;;
8556;SDS011;4316;53.840;10.762;2023-12-04T06:55:28;31.90;;;16.77;;
8556;SDS011;4316;53.840;10.762;2023-12-04T06:57:54;29.80;;;16.53;;
8556;SDS011;4316;53.840;10.762;2023-12-04T07:00:19;26.03;;;15.77;;
8556;SDS011;4316;53.840;10.762;2023-12-04T07:02:46;29.40;;;17.07;;
8556;SDS011;4316;53.840;10.762;2023-12-04T07:05:11;29.50;;;17.40;;
8556;SDS011;4316;53.840;10.762;2023-12-04T07:07:37;31.60;;;18.33;;
8556;SDS011;4316;53.840;10.762;2023-12-04T07:10:03;34.77;;;18.20;;
8556;SDS011;4316;53.840;10.762;2023-12-04T07:12:29;34.70;;;17.73;;
8556;SDS011;4316;53.840;10.762;2023-12-04T07:14:55;34.77;;;20.23;;
8556;SDS011;4316;53.840;10.762;2023-12-04T07:17:20;27.57;;;16.40;;
8556;SDS011;4316;53.840;10.762;2023-12-04T07:19:47;29.97;;;16.37;;
8556;SDS011;4316;53.840;10.762;2023-12-04T07:22:13;26.53;;;16.63;;
8556;SDS011;4316;53.840;10.762;2023-12-04T07:24:39;30.50;;;17.77;;
8556;SDS011;4316;53.840;10.762;2023-12-04T07:27:05;26.20;;;15.00;;
8556;SDS011;4316;53.840;10.762;2023-12-04T07:29:31;32.63;;;19.47;;
8556;SDS011;4316;53.840;10.762;2023-12-04T07:31:57;24.63;;;16.07;;
8556;SDS011;4316;53.840;10.762;2023-12-04T07:34:24;26.33;;;16.87;;
8556;SDS011;4316;53.840;10.762;2023-12-04T07:36:49;26.53;;;15.47;;
8556;SDS011;4316;53.840;10.762;2023-12-04T07:39:16;28.70;;;16.57;;
8556;SDS011;4316;53.840;10.762;2023-12-04T07:41:41;31.93;;;17.37;;
8556;SDS011;4316;53.840;10.762;2023-12-04T07:44:10;29.23;;;18.47;;
8556;SDS011;4316;53.840;10.762;2023-12-04T07:46:36;29.70;;;18.03;;
8556;SDS011;4316;53.840;10.762;2023-12-04T07:49:02;26.47;;;16.13;;
8556;SDS011;4316;53.840;10.762;2023-12-04T07:51:31;24.10;;;14.33;;
8556;SDS011;4316;53.840;10.762;2023-12-04T07:53:57;31.43;;;17.90;;
8556;SDS011;4316;53.840;10.762;2023-12-04T07:56:23;33.40;;;18.23;;
8556;SDS011;4316;53.840;10.762;2023-12-04T07:58:49;23.07;;;16.47;;
8556;SDS011;4316;53.840;10.762;2023-12-04T08:01:15;32.17;;;18.57;;
8556;SDS011;4316;53.840;10.762;2023-12-04T08:03:41;27.23;;;16.43;;
8556;SDS011;4316;53.840;10.762;2023-12-04T08:06:07;34.07;;;17.60;;
8556;SDS011;4316;53.840;10.762;2023-12-04T08:08:33;26.27;;;16.00;;
8556;SDS011;4316;53.840;10.762;2023-12-04T08:10:59;29.80;;;17.23;;
8556;SDS011;4316;53.840;10.762;2023-12-04T08:13:25;33.63;;;18.30;;
8556;SDS011;4316;53.840;10.762;2023-12-04T08:15:51;30.00;;;21.30;;
8556;SDS011;4316;53.840;10.762;2023-12-04T08:18:16;34.77;;;19.17;;
8556;SDS011;4316;53.840;10.762;2023-12-04T08:20:42;31.63;;;18.40;;
8556;SDS011;4316;53.840;10.762;2023-12-04T08:23:08;32.30;;;19.40;;
8556;SDS011;4316;53.840;10.762;2023-12-04T08:25:34;29.43;;;17.63;;
8556;SDS011;4316;53.840;10.762;2023-12-04T08:28:01;29.77;;;17.90;;
8556;SDS011;4316;53.840;10.762;2023-12-04T08:30:27;29.67;;;18.87;;
8556;SDS011;4316;53.840;10.762;2023-12-04T08:32:53;25.43;;;17.10;;
8556;SDS011;4316;53.840;10.762;2023-12-04T08:35:19;34.00;;;19.57;;
8556;SDS011;4316;53.840;10.762;2023-12-04T08:37:45;24.63;;;15.47;;
8556;SDS011;4316;53.840;10.762;2023-12-04T08:40:11;27.93;;;18.33;;
8556;SDS011;4316;53.840;10.762;2023-12-04T08:42:37;27.03;;;16.90;;
8556;SDS011;4316;53.840;10.762;2023-12-04T08:45:04;27.17;;;16.80;;
8556;SDS011;4316;53.840;10.762;2023-12-04T08:47:31;29.57;;;17.03;;
8556;SDS011;4316;53.840;10.762;2023-12-04T08:49:57;26.30;;;16.20;;
8556;SDS011;4316;53.840;10.762;2023-12-04T08:52:22;26.43;;;15.83;;
8556;SDS011;4316;53.840;10.762;2023-12-04T08:54:48;30.37;;;18.43;;
8556;SDS011;4316;53.840;10.762;2023-12-04T08:57:14;25.97;;;16.17;;
8556;SDS011;4316;53.840;10.762;2023-12-04T08:59:40;27.17;;;17.60;;
8556;SDS011;4316;53.840;10.762;2023-12-04T09:02:05;22.50;;;14.53;;
8556;SDS011;4316;53.840;10.762;2023-12-04T09:04:31;32.53;;;17.13;;
8556;SDS011;4316;53.840;10.762;2023-12-04T09:06:57;32.07;;;18.87;;
8556;SDS011;4316;53.840;10.762;2023-12-04T09:09:23;29.83;;;16.93;;
8556;SDS011;4316;53.840;10.762;2023-12-04T09:11:49;27.93;;;16.83;;
8556;SDS011;4316;53.840;10.762;2023-12-04T09:14:15;29.77;;;17.23;;
8556;SDS011;4316;53.840;10.762;2023-12-04T09:16:41;28.37;;;17.53;;
8556;SDS011;4316;53.840;10.762;2023-12-04T09:19:07;25.83;;;16.27;;
8556;SDS011;4316;53.840;10.762;2023-12-04T09:21:32;29.80;;;16.10;;
8556;SDS011;4316;53.840;10.762;2023-12-04T09:23:58;27.50;;;15.30;;
8556;SDS011;4316;53.840;10.762;2023-12-04T09:26:24;30.93;;;16.80;;
8556;SDS011;4316;53.840;10.762;2023-12-04T09:28:50;34.10;;;19.43;;
8556;SDS011;4316;53.840;10.762;2023-12-04T09:31:16;25.63;;;15.73;;
8556;SDS011;4316;53.840;10.762;2023-12-04T09:33:41;25.93;;;16.73;;
8556;SDS011;4316;53.840;10.762;2023-12-04T09:36:07;27.50;;;15.40;;
8556;SDS011;4316;53.840;10.762;2023-12-04T09:38:34;24.33;;;16.07;;
8556;SDS011;4316;53.840;10.762;2023-12-04T09:41:01;25.20;;;16.47;;
8556;SDS011;4316;53.840;10.762;2023-12-04T09:43:30;27.33;;;15.13;;
8556;SDS011;4316;53.840;10.762;2023-12-04T09:45:57;26.87;;;16.73;;
8556;SDS011;4316;53.840;10.762;2023-12-04T09:48:26;28.17;;;14.57;;
8556;SDS011;4316;53.840;10.762;2023-12-04T09:50:53;17.37;;;10.43;;
8556;SDS011;4316;53.840;10.762;2023-12-04T09:53:20;27.43;;;16.67;;
8556;SDS011;4316;53.840;10.762;2023-12-04T09:55:48;27.83;;;15.60;;
8556;SDS011;4316;53.840;10.762;2023-12-04T09:58:14;20.57;;;13.67;;
8556;SDS011;4316;53.840;10.762;2023-12-04T10:00:43;27.63;;;15.27;;
8556;SDS011;4316;53.840;10.762;2023-12-04T10:03:09;9.77;;;6.47;;
8556;SDS011;4316;53.840;10.762;2023-12-04T10:05:35;27.97;;;14.87;;
8556;SDS011;4316;53.840;10.762;2023-12-04T10:08:00;22.83;;;15.77;;
8556;SDS011;4316;53.840;10.762;2023-12-04T10:10:26;27.60;;;16.57;;
8556;SDS011;4316;53.840;10.762;2023-12-04T10:12:52;32.40;;;17.47;;
8556;SDS011;4316;53.840;10.762;2023-12-04T10:15:18;27.23;;;15.07;;
8556;SDS011;4316;53.840;10.762;2023-12-04T10:17:43;19.40;;;12.93;;
8556;SDS011;4316;53.840;10.762;2023-12-04T10:20:10;31.97;;;16.10;;
8556;SDS011;4316;53.840;10.762;2023-12-04T10:22:59;33.07;;;18.97;;
8556;SDS011;4316;53.840;10.762;2023-12-04T10:25:27;21.33;;;13.83;;
8556;SDS011;4316;53.840;10.762;2023-12-04T10:28:06;16.47;;;9.60;;
8556;SDS011;4316;53.840;10.762;2023-12-04T10:30:37;27.83;;;17.10;;
8556;SDS011;4316;53.840;10.762;2023-12-04T10:33:03;28.90;;;16.13;;
8556;SDS011;4316;53.840;10.762;2023-12-04T10:35:30;29.47;;;17.17;;
8556;SDS011;4316;53.840;10.762;2023-12-04T10:37:58;27.90;;;16.90;;
8556;SDS011;4316;53.840;10.762;2023-12-04T10:40:25;23.50;;;14.87;;
8556;SDS011;4316;53.840;10.762;2023-12-04T10:45:38;20.73;;;12.60;;
8556;SDS011;4316;53.840;10.762;2023-12-04T10:48:05;21.53;;;11.27;;
8556;SDS011;4316;53.840;10.762;2023-12-04T10:50:36;25.43;;;15.00;;
8556;SDS011;4316;53.840;10.762;2023-12-04T10:53:06;23.40;;;15.77;;
8556;SDS011;4316;53.840;10.762;2023-12-04T10:55:37;28.80;;;17.27;;
8556;SDS011;4316;53.840;10.762;2023-12-04T10:58:05;31.47;;;18.40;;
8556;SDS011;4316;53.840;10.762;2023-12-04T11:00:35;28.67;;;15.53;;
8556;SDS011;4316;53.840;10.762;2023-12-04T11:03:10;30.00;;;15.67;;
8556;SDS011;4316;53.840;10.762;2023-12-04T11:05:40;26.57;;;16.37;;
8556;SDS011;4316;53.840;10.762;2023-12-04T11:08:07;27.63;;;15.50;;
8556;SDS011;4316;53.840;10.762;2023-12-04T11:10:48;25.33;;;15.43;;
8556;SDS011;4316;53.840;10.762;2023-12-04T11:13:35;21.90;;;13.87;;
8556;SDS011;4316;53.840;10.762;2023-12-04T11:16:23;25.53;;;15.43;;
8556;SDS011;4316;53.840;10.762;2023-12-04T11:18:57;33.07;;;18.03;;
8556;SDS011;4316;53.840;10.762;2023-12-04T11:21:30;23.90;;;15.43;;
8556;SDS011;4316;53.840;10.762;2023-12-04T11:23:57;19.70;;;13.03;;
8556;SDS011;4316;53.840;10.762;2023-12-04T11:26:23;11.63;;;7.47;;
8556;SDS011;4316;53.840;10.762;2023-12-04T11:28:50;23.57;;;16.03;;
8556;SDS011;4316;53.840;10.762;2023-12-04T11:31:17;20.13;;;12.80;;
8556;SDS011;4316;53.840;10.762;2023-12-04T11:33:43;30.20;;;17.13;;
8556;SDS011;4316;53.840;10.762;2023-12-04T11:36:10;30.97;;;17.60;;
8556;SDS011;4316;53.840;10.762;2023-12-04T11:38:37;23.27;;;14.77;;
8556;SDS011;4316;53.840;10.762;2023-12-04T11:41:20;21.33;;;14.53;;
8556;SDS011;4316;53.840;10.762;2023-12-04T11:43:47;26.47;;;16.83;;
8556;SDS011;4316;53.840;10.762;2023-12-04T11:46:18;12.40;;;8.73;;
8556;SDS011;4316;53.840;10.762;2023-12-04T11:48:47;22.93;;;13.73;;
8556;SDS011;4316;53.840;10.762;2023-12-04T11:51:15;25.10;;;14.33;;
8556;SDS011;4316;53.840;10.762;2023-12-04T11:54:01;21.93;;;14.57;;
8556;SDS011;4316;53.840;10.762;2023-12-04T11:56:30;22.87;;;14.63;;
8556;SDS011;4316;53.840;10.762;2023-12-04T11:59:02;4.60;;;4.13;;
8556;SDS011;4316;53.840;10.762;2023-12-04T12:01:32;25.30;;;14.40;;
8556;SDS011;4316;53.840;10.762;2023-12-04T12:03:59;22.40;;;14.40;;
8556;SDS011;4316;53.840;10.762;2023-12-04T12:06:26;23.00;;;14.77;;
8556;SDS011;4316;53.840;10.762;2023-12-04T12:08:52;21.93;;;14.77;;
8556;SDS011;4316;53.840;10.762;2023-12-04T12:11:19;24.43;;;15.03;;
8556;SDS011;4316;53.840;10.762;2023-12-04T12:13:45;23.43;;;15.50;;
8556;SDS011;4316;53.840;10.762;2023-12-04T12:16:11;23.87;;;14.67;;
8556;SDS011;4316;53.840;10.762;2023-12-04T12:18:37;25.43;;;15.33;;
8556;SDS011;4316;53.840;10.762;2023-12-04T12:21:05;29.77;;;17.00;;
8556;SDS011;4316;53.840;10.762;2023-12-04T12:23:32;22.83;;;14.67;;
8556;SDS011;4316;53.840;10.762;2023-12-04T12:25:59;14.20;;;7.37;;
8556;SDS011;4316;53.840;10.762;2023-12-04T12:28:25;24.87;;;15.57;;
8556;SDS011;4316;53.840;10.762;2023-12-04T12:30:50;23.33;;;15.73;;
8556;SDS011;4316;53.840;10.762;2023-12-04T12:33:19;25.17;;;15.07;;
8556;SDS011;4316;53.840;10.762;2023-12-04T12:35:49;21.70;;;15.10;;
8556;SDS011;4316;53.840;10.762;2023-12-04T12:38:15;24.83;;;14.53;;
8556;SDS011;4316;53.840;10.762;2023-12-04T12:40:41;23.90;;;14.80;;
8556;SDS011;4316;53.840;10.762;2023-12-04T12:43:08;28.03;;;15.13;;
8556;SDS011;4316;53.840;10.762;2023-12-04T12:45:40;24.20;;;13.87;;
8556;SDS011;4316;53.840;10.762;2023-12-04T12:48:13;26.50;;;15.10;;
8556;SDS011;4316;53.840;10.762;2023-12-04T12:50:41;25.63;;;15.20;;
8556;SDS011;4316;53.840;10.762;2023-12-04T12:53:13;21.80;;;14.80;;
8556;SDS011;4316;53.840;10.762;2023-12-04T12:55:42;18.03;;;11.10;;
8556;SDS011;4316;53.840;10.762;2023-12-04T12:58:09;20.67;;;14.47;;
8556;SDS011;4316;53.840;10.762;2023-12-04T13:00:35;23.50;;;14.50;;
8556;SDS011;4316;53.840;10.762;2023-12-04T13:03:01;21.07;;;12.47;;
8556;SDS011;4316;53.840;10.762;2023-12-04T13:05:27;21.40;;;13.73;;
8556;SDS011;4316;53.840;10.762;2023-12-04T13:07:53;22.27;;;16.03;;
8556;SDS011;4316;53.840;10.762;2023-12-04T13:10:20;21.87;;;14.03;;
8556;SDS011;4316;53.840;10.762;2023-12-04T13:12:49;23.87;;;13.60;;
8556;SDS011;4316;53.840;10.762;2023-12-04T13:15:17;19.97;;;14.50;;
8556;SDS011;4316;53.840;10.762;2023-12-04T13:17:43;24.67;;;14.17;;
8556;SDS011;4316;53.840;10.762;2023-12-04T13:20:09;24.80;;;14.47;;
8556;SDS011;4316;53.840;10.762;2023-12-04T13:22:39;20.20;;;12.83;;
8556;SDS011;4316;53.840;10.762;2023-12-04T13:25:05;20.10;;;14.77;;
8556;SDS011;4316;53.840;10.762;2023-12-04T13:27:35;19.10;;;12.90;;
8556;SDS011;4316;53.840;10.762;2023-12-04T13:30:07;18.57;;;11.63;;
8556;SDS011;4316;53.840;10.762;2023-12-04T13:32:36;19.60;;;10.93;;
8556;SDS011;4316;53.840;10.762;2023-12-04T13:35:03;15.47;;;11.80;;
8556;SDS011;4316;53.840;10.762;2023-12-04T13:37:33;17.30;;;13.13;;
8556;SDS011;4316;53.840;10.762;2023-12-04T13:40:02;17.83;;;12.43;;
8556;SDS011;4316;53.840;10.762;2023-12-04T13:42:34;19.40;;;13.33;;
8556;SDS011;4316;53.840;10.762;2023-12-04T13:45:19;17.17;;;12.03;;
8556;SDS011;4316;53.840;10.762;2023-12-04T13:47:48;23.37;;;13.13;;
8556;SDS011;4316;53.840;10.762;2023-12-04T13:50:14;16.30;;;12.27;;
8556;SDS011;4316;53.840;10.762;2023-12-04T13:52:40;15.67;;;12.10;;
8556;SDS011;4316;53.840;10.762;2023-12-04T13:55:08;17.40;;;12.40;;
8556;SDS011;4316;53.840;10.762;2023-12-04T13:57:44;18.10;;;12.67;;
8556;SDS011;4316;53.840;10.762;2023-12-04T14:00:30;17.90;;;10.90;;
8556;SDS011;4316;53.840;10.762;2023-12-04T14:02:55;18.10;;;12.07;;
8556;SDS011;4316;53.840;10.762;2023-12-04T14:05:32;18.67;;;12.37;;
8556;SDS011;4316;53.840;10.762;2023-12-04T14:07:59;18.00;;;11.53;;
8556;SDS011;4316;53.840;10.762;2023-12-04T14:10:26;14.00;;;10.90;;
8556;SDS011;4316;53.840;10.762;2023-12-04T14:12:52;21.37;;;11.20;;
8556;SDS011;4316;53.840;10.762;2023-12-04T14:15:19;19.33;;;12.40;;
8556;SDS011;4316;53.840;10.762;2023-12-04T14:17:47;16.43;;;11.20;;
8556;SDS011;4316;53.840;10.762;2023-12-04T14:20:14;19.97;;;11.53;;
8556;SDS011;4316;53.840;10.762;2023-12-04T14:22:42;19.03;;;12.40;;
8556;SDS011;4316;53.840;10.762;2023-12-04T14:25:09;20.07;;;10.97;;
8556;SDS011;4316;53.840;10.762;2023-12-04T14:27:35;17.53;;;12.53;;
8556;SDS011;4316;53.840;10.762;2023-12-04T14:30:05;17.83;;;10.93;;
8556;SDS011;4316;53.840;10.762;2023-12-04T14:32:34;14.20;;;9.77;;
8556;SDS011;4316;53.840;10.762;2023-12-04T14:35:00;12.13;;;9.40;;
8556;SDS011;4316;53.840;10.762;2023-12-04T14:37:25;16.00;;;10.23;;